Time;durP1;ratioP1;P1;durP2;ratioP2;P2;SDS_P1;SDS_P2;PMS_P1;PMS_P2;Temp;Humidity;BMP_temperature;BMP_pressure;BME280_temperature;BME280_humidity;BME280_pressure;Samples;Min_cycle;Max_cycle;Signal;HPM_P1;HPM_P2
2022/03/30 00:00:06;;;;;;;378.33;168.03;;;;;;;13.20;56.33;99094.56;341212;29;882;-70
2022/03/30 00:00:17;;;;;;;375.70;164.30;;;;;;;13.19;56.26;99095.50;341098;29;1014;-70
2022/03/30 00:00:27;;;;;;;379.17;165.00;;;;;;;13.19;55.92;99098.13;341213;29;1140;-70
2022/03/30 00:00:38;;;;;;;378.07;163.33;;;;;;;13.22;56.04;99095.31;341229;29;1205;-70
2022/03/30 00:00:48;;;;;;;380.05;168.75;;;;;;;13.22;56.11;99100.56;341361;29;856;-70
2022/03/30 00:01:00;;;;;;;376.17;166.07;;;;;;;13.23;55.91;99099.63;343793;28;1807;-70
2022/03/30 00:01:11;;;;;;;378.95;162.60;;;;;;;13.23;55.92;99095.22;343891;28;1262;-70
2022/03/30 00:01:21;;;;;;;377.35;159.38;;;;;;;13.24;56.02;99094.28;344041;28;983;-70
2022/03/30 00:01:32;;;;;;;378.47;164.13;;;;;;;13.25;56.13;99098.59;342659;28;1609;-70
2022/03/30 00:01:42;;;;;;;377.20;168.13;;;;;;;13.26;56.11;99096.81;343882;28;1219;-70
2022/03/30 00:01:53;;;;;;;379.23;171.37;;;;;;;13.27;56.19;99093.25;343980;28;869;-70
2022/03/30 00:02:04;;;;;;;377.45;167.50;;;;;;;13.27;56.00;99096.72;343875;28;946;-70
2022/03/30 00:02:15;;;;;;;378.20;168.37;;;;;;;13.28;55.97;99097.56;343900;28;988;-69
2022/03/30 00:02:25;;;;;;;377.15;167.68;;;;;;;13.27;56.13;99090.63;344047;28;872;-69
2022/03/30 00:02:36;;;;;;;378.08;170.02;;;;;;;13.27;55.97;99091.47;340744;28;1801;-69
2022/03/30 00:02:46;;;;;;;376.63;166.23;;;;;;;13.28;56.10;99094.94;339988;29;1082;-69
2022/03/30 00:02:57;;;;;;;379.38;168.15;;;;;;;13.28;56.17;99092.31;340018;29;1128;-69
2022/03/30 00:03:07;;;;;;;378.42;166.98;;;;;;;13.28;56.41;99097.56;339976;29;1569;-69
2022/03/30 00:03:18;;;;;;;376.77;167.93;;;;;;;13.27;56.50;99096.72;341064;28;1736;-69
2022/03/30 00:03:29;;;;;;;374.63;165.18;;;;;;;13.26;56.51;99086.31;343911;28;2183;-69
2022/03/30 00:03:39;;;;;;;377.35;169.82;;;;;;;13.27;56.49;99090.63;341154;29;1233;-69
2022/03/30 00:03:50;;;;;;;380.13;168.90;;;;;;;13.27;56.60;99095.88;342548;28;1292;-69
2022/03/30 00:04:00;;;;;;;380.30;168.87;;;;;;;13.27;56.52;99095.88;342524;28;1212;-69
2022/03/30 00:04:10;;;;;;;378.60;163.32;;;;;;;13.28;56.37;99092.31;343851;28;1216;-69
2022/03/30 00:04:21;;;;;;;377.40;166.73;;;;;;;13.28;56.58;99097.56;341369;29;873;-69
2022/03/30 00:04:31;;;;;;;378.95;165.57;;;;;;;13.27;56.48;99090.63;343960;28;1267;-69
2022/03/30 00:04:42;;;;;;;378.85;169.60;;;;;;;13.25;56.55;99095.13;341314;29;1237;-69
2022/03/30 00:04:52;;;;;;;376.67;168.07;;;;;;;13.27;56.67;99095.88;343505;28;1607;-69
2022/03/30 00:05:03;;;;;;;377.30;169.10;;;;;;;13.26;56.67;99089.78;344015;28;814;-69
2022/03/30 00:05:13;;;;;;;377.90;167.47;;;;;;;13.24;56.88;99101.31;342692;28;1055;-69
2022/03/30 00:05:24;;;;;;;379.80;168.18;;;;;;;13.22;56.66;99100.56;343951;28;1015;-69
2022/03/30 00:05:34;;;;;;;381.10;168.50;;;;;;;13.23;56.92;99097.00;342491;28;1313;-69
2022/03/30 00:05:45;;;;;;;381.48;168.82;;;;;;;13.23;56.64;99092.59;342636;28;873;-69
2022/03/30 00:05:56;;;;;;;380.63;168.57;;;;;;;13.23;56.84;99099.63;342664;28;1280;-69
2022/03/30 00:06:06;;;;;;;379.60;171.23;;;;;;;13.22;56.75;99096.16;342626;28;853;-70
2022/03/30 00:06:16;;;;;;;379.55;168.57;;;;;;;13.22;56.59;99093.53;343896;28;1232;-70
2022/03/30 00:06:27;;;;;;;380.10;171.03;;;;;;;13.24;56.58;99090.81;342434;28;1912;-69
2022/03/30 00:06:37;;;;;;;379.25;170.43;;;;;;;13.22;56.30;99088.28;341381;28;1645;-70
2022/03/30 00:06:48;;;;;;;380.73;172.27;;;;;;;13.18;56.51;99093.81;341153;29;1556;-70
2022/03/30 00:06:58;;;;;;;382.33;175.13;;;;;;;13.13;56.53;99093.19;341279;29;1043;-70
2022/03/30 00:07:09;;;;;;;383.80;172.60;;;;;;;13.11;56.68;99093.28;342434;28;2281;-70
2022/03/30 00:07:19;;;;;;;381.60;170.95;;;;;;;13.10;56.65;99090.75;343552;28;2577;-69
2022/03/30 00:07:31;;;;;;;381.03;167.80;;;;;;;13.08;56.80;99095.25;345050;28;1252;-69
2022/03/30 00:07:42;;;;;;;381.35;169.73;;;;;;;13.07;56.58;99090.94;344944;28;1491;-70
2022/03/30 00:07:53;;;;;;;381.50;168.63;;;;;;;13.08;56.51;99090.00;342326;28;2054;-70
2022/03/30 00:08:04;;;;;;;379.42;165.32;;;;;;;13.10;56.81;99098.63;342429;28;1386;-70
2022/03/30 00:08:14;;;;;;;377.63;165.18;;;;;;;13.10;56.60;99088.13;342521;28;1353;-70
2022/03/30 00:08:24;;;;;;;379.03;169.60;;;;;;;13.10;56.69;99091.59;341325;29;880;-70
2022/03/30 00:08:35;;;;;;;381.15;171.88;;;;;;;13.10;56.52;99088.97;342500;28;935;-70
2022/03/30 00:08:45;;;;;;;383.97;173.27;;;;;;;13.10;56.66;99093.38;342644;28;1211;-70
2022/03/30 00:08:56;;;;;;;380.77;168.75;;;;;;;13.10;56.42;99093.38;343952;28;1388;-70
2022/03/30 00:09:06;;;;;;;378.63;165.43;;;;;;;13.10;56.55;99093.38;342596;28;1357;-69
2022/03/30 00:09:16;;;;;;;377.25;162.63;;;;;;;13.12;56.56;99091.50;343943;28;1360;-69
2022/03/30 00:09:27;;;;;;;375.43;160.07;;;;;;;13.11;56.65;99092.44;343947;28;1689;-69
2022/03/30 00:09:37;;;;;;;376.27;162.07;;;;;;;13.11;56.58;99095.06;341184;29;1212;-69
2022/03/30 00:09:47;;;;;;;375.95;162.55;;;;;;;13.12;56.37;99094.13;343958;28;1092;-69
2022/03/30 00:09:59;;;;;;;374.73;161.93;;;;;;;13.12;56.49;99091.50;342142;28;2290;-69
2022/03/30 00:10:09;;;;;;;375.98;162.18;;;;;;;13.12;56.50;99091.50;341096;28;1951;-70
2022/03/30 00:10:20;;;;;;;376.77;165.17;;;;;;;13.12;56.52;99096.75;343898;28;1339;-70
2022/03/30 00:10:30;;;;;;;378.05;166.75;;;;;;;13.13;56.39;99094.03;342535;28;1013;-70
2022/03/30 00:10:41;;;;;;;377.53;167.87;;;;;;;13.14;56.67;99100.16;341325;29;862;-69
2022/03/30 00:10:51;;;;;;;379.73;169.70;;;;;;;13.12;56.73;99094.97;342648;28;926;-69
2022/03/30 00:11:01;;;;;;;377.97;164.63;;;;;;;13.12;56.42;99092.34;341393;29;863;-69
2022/03/30 00:11:12;;;;;;;379.15;162.82;;;;;;;13.14;56.53;99094.88;343516;28;1960;-70
2022/03/30 00:11:22;;;;;;;376.77;159.27;;;;;;;13.15;56.28;99091.31;343899;28;1340;-70
2022/03/30 00:11:33;;;;;;;375.52;158.82;;;;;;;13.16;56.71;99098.31;343820;28;1347;-70
2022/03/30 00:11:43;;;;;;;373.63;161.40;;;;;;;13.15;56.53;99096.59;341298;29;882;-70
2022/03/30 00:11:56;;;;;;;374.35;164.75;;;;;;;13.14;56.70;99093.09;342626;28;1201;-70
2022/03/30 00:12:07;;;;;;;375.10;166.15;;;;;;;13.14;56.72;99094.88;341729;28;1846;-70
2022/03/30 00:12:17;;;;;;;381.10;169.85;;;;;;;13.13;56.75;99091.41;343699;28;2224;-70
2022/03/30 00:12:28;;;;;;;385.30;172.32;;;;;;;13.12;56.87;99087.09;342500;28;1591;-70
2022/03/30 00:12:38;;;;;;;385.23;171.20;;;;;;;13.11;56.77;99090.66;342508;28;1208;-70
2022/03/30 00:12:49;;;;;;;380.90;170.57;;;;;;;13.11;56.60;99087.19;340482;29;3866;-70
2022/03/30 00:13:00;;;;;;;379.25;168.35;;;;;;;13.11;57.08;99092.44;342607;28;916;-70
2022/03/30 00:13:10;;;;;;;381.60;169.88;;;;;;;13.11;56.88;99092.44;343253;28;826;-70
2022/03/30 00:13:21;;;;;;;383.07;170.33;;;;;;;13.09;57.07;99089.91;342612;28;1176;-70
2022/03/30 00:13:31;;;;;;;382.90;172.15;;;;;;;13.08;57.13;99090.00;343824;28;889;-70
2022/03/30 00:13:42;;;;;;;378.97;166.57;;;;;;;13.06;57.04;99091.88;342796;28;1976;-70
2022/03/30 00:13:52;;;;;;;377.42;170.50;;;;;;;13.07;57.03;99094.41;342370;28;2225;-70
2022/03/30 00:14:02;;;;;;;379.80;169.30;;;;;;;13.07;57.01;99101.44;342575;28;866;-70
2022/03/30 00:14:13;;;;;;;381.33;173.75;;;;;;;13.04;56.97;99093.75;339982;29;1097;-70
2022/03/30 00:14:23;;;;;;;383.17;174.60;;;;;;;13.04;57.17;99088.47;341189;29;1547;-70
2022/03/30 00:14:36;;;;;;;382.67;178.90;;;;;;;13.02;57.30;99100.88;343885;28;1379;-69
2022/03/30 00:14:47;;;;;;;381.30;175.32;;;;;;;13.03;57.09;99102.56;344036;28;952;-69
2022/03/30 00:14:57;;;;;;;383.95;174.90;;;;;;;13.02;57.12;99087.72;343932;28;1414;-69
2022/03/30 00:15:08;;;;;;;385.20;177.32;;;;;;;13.04;57.08;99093.75;341227;29;962;-69
2022/03/30 00:15:18;;;;;;;384.40;176.23;;;;;;;13.03;57.05;99097.31;341131;29;954;-69
2022/03/30 00:15:30;;;;;;;379.07;168.30;;;;;;;13.00;57.29;99093.91;341197;29;1065;-69
2022/03/30 00:15:40;;;;;;;377.17;165.77;;;;;;;13.02;57.23;99092.97;341168;29;1691;-69
2022/03/30 00:15:50;;;;;;;375.90;166.13;;;;;;;13.04;57.12;99099.00;342618;28;865;-69
2022/03/30 00:16:05;;;;;;;372.87;160.37;;;;;;;13.04;57.21;99099.84;345294;28;957;-69
2022/03/30 00:16:15;;;;;;;372.50;160.57;;;;;;;13.05;57.27;99098.06;345204;28;913;-69
2022/03/30 00:16:25;;;;;;;376.90;168.37;;;;;;;13.04;57.22;99099.00;342682;28;842;-69
2022/03/30 00:16:36;;;;;;;378.50;167.40;;;;;;;13.02;57.31;99093.84;341133;29;1195;-69
2022/03/30 00:16:48;;;;;;;378.33;166.40;;;;;;;13.04;57.25;99099.84;342675;28;825;-69
2022/03/30 00:16:58;;;;;;;378.05;163.65;;;;;;;13.05;57.27;99096.28;343487;28;2123;-69
2022/03/30 00:17:08;;;;;;;378.10;164.80;;;;;;;13.02;57.14;99101.72;344361;28;1167;-70
2022/03/30 00:17:19;;;;;;;378.48;165.85;;;;;;;13.01;57.23;99102.66;345397;28;903;-69
2022/03/30 00:17:31;;;;;;;378.87;166.53;;;;;;;12.99;57.03;99102.78;343876;28;1082;-69
2022/03/30 00:17:42;;;;;;;377.30;166.75;;;;;;;12.99;57.24;99100.13;343791;28;1418;-69
2022/03/30 00:17:52;;;;;;;375.52;163.13;;;;;;;12.98;57.27;99095.81;342634;28;853;-69
2022/03/30 00:18:03;;;;;;;373.65;161.30;;;;;;;12.98;57.06;99094.97;343210;28;1193;-69
2022/03/30 00:18:13;;;;;;;373.53;163.00;;;;;;;12.98;57.13;99090.56;343814;28;1380;-69
2022/03/30 00:18:23;;;;;;;374.23;162.73;;;;;;;12.99;57.17;99097.50;344054;28;875;-69
2022/03/30 00:18:34;;;;;;;374.07;165.30;;;;;;;12.98;57.07;99098.44;341175;29;1343;-69
2022/03/30 00:18:44;;;;;;;374.30;164.43;;;;;;;12.99;57.36;99094.03;342547;28;1987;-69
2022/03/30 00:18:54;;;;;;;376.40;166.77;;;;;;;13.00;57.26;99093.06;342645;28;937;-69
2022/03/30 00:19:05;;;;;;;378.47;165.77;;;;;;;12.96;57.27;99095.06;341680;28;1137;-69
2022/03/30 00:19:15;;;;;;;380.92;172.68;;;;;;;12.97;57.07;99088.03;342494;28;1345;-69
2022/03/30 00:19:26;;;;;;;381.53;176.73;;;;;;;12.97;57.11;99096.75;343318;28;1562;-70
2022/03/30 00:19:36;;;;;;;381.63;179.57;;;;;;;12.98;57.12;99098.44;342595;28;983;-69
2022/03/30 00:19:46;;;;;;;380.20;173.30;;;;;;;12.98;57.09;99092.34;345302;28;853;-69
2022/03/30 00:19:59;;;;;;;379.05;168.52;;;;;;;12.99;57.20;99092.25;343954;28;980;-69
2022/03/30 00:20:10;;;;;;;381.00;166.18;;;;;;;12.99;57.18;99101.91;343536;28;1288;-70
2022/03/30 00:20:21;;;;;;;381.73;166.93;;;;;;;13.00;57.19;99098.31;343996;28;865;-70
2022/03/30 00:20:31;;;;;;;380.70;165.67;;;;;;;13.00;56.89;99093.91;342587;28;1018;-69
2022/03/30 00:20:41;;;;;;;380.47;168.10;;;;;;;12.99;57.04;99101.91;345302;28;1007;-69
2022/03/30 00:20:52;;;;;;;381.42;171.70;;;;;;;12.98;57.19;99102.84;345345;28;873;-69
2022/03/30 00:21:02;;;;;;;380.73;170.33;;;;;;;12.95;57.12;99096.00;343837;28;1815;-69
2022/03/30 00:21:13;;;;;;;377.30;164.60;;;;;;;12.95;57.21;99092.53;342582;28;933;-69
2022/03/30 00:21:24;;;;;;;375.48;163.57;;;;;;;12.92;57.43;99100.59;339924;29;883;-69
2022/03/30 00:21:34;;;;;;;377.70;164.83;;;;;;;12.91;57.44;99105.00;342637;28;1199;-69
2022/03/30 00:21:45;;;;;;;378.27;166.73;;;;;;;12.91;57.43;99097.13;344218;28;2112;-69
2022/03/30 00:21:56;;;;;;;380.33;165.85;;;;;;;12.88;57.33;99099.91;345118;28;1021;-69
2022/03/30 00:22:06;;;;;;;381.93;169.00;;;;;;;12.87;57.29;99100.00;342580;28;909;-69
2022/03/30 00:22:17;;;;;;;380.17;169.50;;;;;;;12.85;57.15;99104.50;343411;28;1006;-69
2022/03/30 00:22:27;;;;;;;379.05;165.93;;;;;;;12.83;57.23;99096.72;338682;29;825;-69
2022/03/30 00:22:40;;;;;;;380.13;163.30;;;;;;;12.84;57.37;99101.03;343842;28;1339;-69
2022/03/30 00:22:51;;;;;;;379.78;164.14;;;;;;;12.84;57.45;99101.03;343715;28;1498;-69
2022/03/30 00:23:01;;;;;;;377.90;166.57;;;;;;;12.84;57.41;99103.66;341211;28;1988;-69
2022/03/30 00:23:12;;;;;;;378.20;164.07;;;;;;;12.81;57.37;99098.59;341273;29;862;-69
2022/03/30 00:23:22;;;;;;;378.20;161.13;;;;;;;12.82;57.54;99105.53;343851;28;1184;-69
2022/03/30 00:23:33;;;;;;;377.13;159.03;;;;;;;12.82;57.48;99099.44;343963;28;974;-69
2022/03/30 00:23:43;;;;;;;374.05;155.88;;;;;;;12.81;57.47;99103.84;345242;28;866;-69
2022/03/30 00:23:53;;;;;;;372.35;155.27;;;;;;;12.80;57.58;99102.16;345313;28;1306;-69
2022/03/30 00:24:04;;;;;;;374.43;157.33;;;;;;;12.77;57.73;99101.47;342053;28;1988;-70
2022/03/30 00:24:15;;;;;;;378.17;162.85;;;;;;;12.76;57.66;99107.66;342604;28;1999;-70
2022/03/30 00:24:28;;;;;;;381.63;163.40;;;;;;;12.73;57.37;99100.81;342591;28;1750;-70
2022/03/30 00:24:44;;;;;;;379.50;162.98;;;;;;;12.74;58.00;99099.88;343787;28;1419;-70
2022/03/30 00:24:54;;;;;;;380.45;172.15;;;;;;;12.71;57.75;99102.66;343998;28;877;-70
2022/03/30 00:25:07;;;;;;;382.13;168.87;;;;;;;12.71;58.06;99104.44;342561;28;1168;-70
2022/03/30 00:25:18;;;;;;;380.20;163.90;;;;;;;12.71;57.59;99101.81;341342;29;947;-70
2022/03/30 00:25:29;;;;;;;375.10;159.73;;;;;;;12.70;57.72;99106.22;343677;28;1213;-70
2022/03/30 00:25:39;;;;;;;372.67;158.40;;;;;;;12.70;57.67;99106.22;344003;28;930;-70
2022/03/30 00:25:49;;;;;;;374.63;163.00;;;;;;;12.72;57.68;99101.75;341308;29;1094;-70
2022/03/30 00:26:00;;;;;;;375.77;162.68;;;;;;;12.71;57.79;99107.91;341176;28;1804;-70
2022/03/30 00:26:10;;;;;;;376.93;163.93;;;;;;;12.70;57.67;99100.97;341277;29;974;-70
2022/03/30 00:26:20;;;;;;;378.00;159.90;;;;;;;12.71;57.82;99101.81;339982;29;987;-70
2022/03/30 00:26:31;;;;;;;377.50;158.32;;;;;;;12.71;57.84;99102.66;341221;28;2460;-70
2022/03/30 00:26:41;;;;;;;376.60;156.77;;;;;;;12.73;57.80;99107.84;342586;28;1119;-70
2022/03/30 00:26:52;;;;;;;374.23;155.90;;;;;;;12.70;57.62;99106.22;342576;28;1272;-70
2022/03/30 00:27:02;;;;;;;375.93;158.90;;;;;;;12.70;57.65;99103.59;342583;28;1024;-70
2022/03/30 00:27:13;;;;;;;376.70;159.63;;;;;;;12.72;57.43;99104.38;342590;28;1181;-70
2022/03/30 00:27:23;;;;;;;376.67;161.43;;;;;;;12.72;57.92;99099.13;342654;28;861;-70
2022/03/30 00:27:34;;;;;;;377.35;164.13;;;;;;;12.73;57.61;99106.06;340804;29;1105;-70
2022/03/30 00:27:46;;;;;;;376.23;164.10;;;;;;;12.74;57.72;99102.50;339815;29;1653;-70
2022/03/30 00:27:56;;;;;;;377.17;162.05;;;;;;;12.73;57.67;99098.19;343881;28;1547;-70
2022/03/30 00:28:08;;;;;;;376.90;162.93;;;;;;;12.74;57.56;99099.03;344346;28;1692;-70
2022/03/30 00:28:18;;;;;;;377.08;165.27;;;;;;;12.66;57.45;99105.56;341200;28;1361;-70
2022/03/30 00:28:29;;;;;;;374.87;161.27;;;;;;;12.60;57.61;99098.03;341285;29;945;-70
2022/03/30 00:28:39;;;;;;;375.65;160.45;;;;;;;12.61;57.66;99098.88;342493;28;1223;-70
2022/03/30 00:28:49;;;;;;;375.33;156.87;;;;;;;12.63;57.65;99102.25;342580;28;1157;-70
2022/03/30 00:29:01;;;;;;;377.23;162.82;;;;;;;12.62;57.64;99098.78;342595;28;857;-70
2022/03/30 00:29:12;;;;;;;376.75;158.77;;;;;;;12.62;57.50;99098.78;342560;28;1287;-70
2022/03/30 00:29:22;;;;;;;378.42;167.20;;;;;;;12.58;57.23;99106.94;341252;29;1921;-70
2022/03/30 00:29:33;;;;;;;376.38;161.32;;;;;;;12.55;57.61;99112.38;342631;28;962;-69
2022/03/30 00:29:44;;;;;;;377.20;164.83;;;;;;;12.54;57.73;99094.94;341135;29;1193;-69
2022/03/30 00:29:55;;;;;;;380.88;163.10;;;;;;;12.56;57.62;99099.13;343980;28;999;-69
2022/03/30 00:30:06;;;;;;;381.63;164.57;;;;;;;12.59;57.44;99100.75;343855;28;811;-69
2022/03/30 00:30:17;;;;;;;381.57;167.73;;;;;;;12.61;57.72;99101.50;344051;28;2239;-69
2022/03/30 00:30:28;;;;;;;379.42;166.50;;;;;;;12.63;57.06;99110.13;343848;28;1029;-69
2022/03/30 00:30:39;;;;;;;379.00;163.57;;;;;;;12.64;57.34;99102.19;342657;28;1203;-70
2022/03/30 00:30:49;;;;;;;375.40;159.70;;;;;;;12.67;57.16;99101.16;342644;28;865;-70
2022/03/30 00:31:00;;;;;;;375.73;158.02;;;;;;;12.68;57.11;99102.84;343922;28;948;-70
2022/03/30 00:31:11;;;;;;;373.77;157.35;;;;;;;12.69;56.95;99101.91;342484;28;1367;-70
2022/03/30 00:31:21;;;;;;;375.27;160.15;;;;;;;12.73;57.34;99102.59;341534;28;2170;-70
2022/03/30 00:31:32;;;;;;;374.17;159.52;;;;;;;12.72;57.22;99100.88;343844;28;1227;-70
2022/03/30 00:31:43;;;;;;;375.58;160.20;;;;;;;12.74;57.28;99102.50;342593;28;857;-70
2022/03/30 00:31:53;;;;;;;372.10;154.20;;;;;;;12.73;57.17;99100.81;340829;28;1663;-70
2022/03/30 00:32:05;;;;;;;374.10;156.93;;;;;;;12.75;57.21;99103.34;341188;29;1000;-70
2022/03/30 00:32:15;;;;;;;374.48;154.77;;;;;;;12.74;57.12;99102.50;341194;28;1586;-70
2022/03/30 00:32:26;;;;;;;379.08;155.50;;;;;;;12.72;57.08;99100.88;342597;28;1184;-70
2022/03/30 00:32:36;;;;;;;378.67;155.97;;;;;;;12.74;57.00;99105.13;342480;28;1336;-70
2022/03/30 00:32:46;;;;;;;374.92;155.32;;;;;;;12.74;57.00;99099.03;342454;28;1857;-70
2022/03/30 00:32:57;;;;;;;373.47;155.27;;;;;;;12.72;57.10;99099.13;344019;28;1151;-70
2022/03/30 00:33:08;;;;;;;373.95;156.70;;;;;;;12.77;57.12;99097.06;342595;28;980;-70
2022/03/30 00:33:18;;;;;;;377.50;161.77;;;;;;;12.77;57.31;99096.22;342627;28;853;-70
2022/03/30 00:33:29;;;;;;;377.33;163.10;;;;;;;12.76;57.21;99100.63;339916;29;1098;-70
2022/03/30 00:33:39;;;;;;;377.75;160.85;;;;;;;12.78;56.94;99101.38;342456;28;1053;-70
2022/03/30 00:33:51;;;;;;;377.93;160.20;;;;;;;12.78;57.18;99098.75;342587;28;885;-70
2022/03/30 00:34:02;;;;;;;378.15;165.10;;;;;;;12.78;57.18;99104.00;342399;28;1695;-70
2022/03/30 00:34:12;;;;;;;377.42;166.25;;;;;;;12.76;57.21;99100.63;342536;28;1254;-70
2022/03/30 00:34:23;;;;;;;379.57;165.40;;;;;;;12.75;57.38;99098.94;340904;28;2012;-70
2022/03/30 00:34:33;;;;;;;382.83;166.90;;;;;;;12.77;57.44;99101.47;343581;28;1968;-71
2022/03/30 00:34:44;;;;;;;380.47;163.33;;;;;;;12.78;57.31;99103.16;343932;28;979;-71
2022/03/30 00:34:55;;;;;;;381.20;167.38;;;;;;;12.78;57.17;99092.66;343924;28;1416;-71
2022/03/30 00:35:05;;;;;;;379.07;165.33;;;;;;;12.76;57.19;99099.78;347950;28;1290;-70
2022/03/30 00:35:16;;;;;;;379.98;165.43;;;;;;;12.75;57.39;99096.31;342611;28;984;-70
2022/03/30 00:35:26;;;;;;;380.53;165.50;;;;;;;12.76;57.34;99097.16;345197;28;1410;-70
2022/03/30 00:35:37;;;;;;;380.53;168.90;;;;;;;12.74;57.25;99092.00;343949;28;917;-70
2022/03/30 00:35:47;;;;;;;380.37;170.77;;;;;;;12.73;57.00;99090.31;343891;28;1002;-70
2022/03/30 00:35:58;;;;;;;379.20;167.10;;;;;;;12.70;57.20;99093.09;343903;28;942;-70
2022/03/30 00:36:08;;;;;;;379.70;162.60;;;;;;;12.68;56.90;99088.88;340537;29;1968;-70
2022/03/30 00:36:19;;;;;;;380.58;159.70;;;;;;;12.62;57.07;99090.06;339526;29;981;-70
2022/03/30 00:36:29;;;;;;;381.23;159.05;;;;;;;12.59;57.11;99090.25;341252;28;1303;-70
2022/03/30 00:36:40;;;;;;;382.23;164.70;;;;;;;12.56;57.13;99090.44;341819;28;1171;-70
2022/03/30 00:36:50;;;;;;;379.08;166.27;;;;;;;12.57;57.07;99099.97;343657;28;2262;-70
2022/03/30 00:37:01;;;;;;;379.00;166.47;;;;;;;12.56;57.01;99093.88;344188;28;1957;-70
2022/03/30 00:37:11;;;;;;;378.38;161.63;;;;;;;12.58;56.90;99091.19;344446;28;896;-70
2022/03/30 00:37:22;;;;;;;383.85;166.95;;;;;;;12.60;56.98;99090.16;342605;28;997;-70
2022/03/30 00:37:32;;;;;;;385.53;165.93;;;;;;;12.59;56.89;99092.88;345278;28;937;-70
2022/03/30 00:37:43;;;;;;;385.53;166.80;;;;;;;12.61;56.75;99088.38;343636;28;1417;-69
2022/03/30 00:37:53;;;;;;;382.75;158.35;;;;;;;12.63;56.68;99089.97;342271;28;2284;-69
2022/03/30 00:38:03;;;;;;;379.93;158.43;;;;;;;12.63;56.58;99094.38;341240;29;837;-69
2022/03/30 00:38:14;;;;;;;378.30;156.75;;;;;;;12.67;56.72;99093.28;344180;28;1348;-69
2022/03/30 00:38:24;;;;;;;378.67;159.67;;;;;;;12.67;56.80;99090.66;345278;28;1202;-69
2022/03/30 00:38:34;;;;;;;381.58;167.00;;;;;;;12.68;56.60;99091.50;341089;28;2058;-70
2022/03/30 00:38:45;;;;;;;382.37;169.70;;;;;;;12.68;56.68;99094.97;341219;29;1918;-70
2022/03/30 00:38:56;;;;;;;379.23;166.95;;;;;;;12.70;56.61;99095.72;345208;28;1710;-69
2022/03/30 00:39:06;;;;;;;377.13;162.07;;;;;;;12.70;56.73;99090.47;345224;28;1372;-70
2022/03/30 00:39:17;;;;;;;381.77;162.38;;;;;;;12.71;56.56;99093.94;341195;28;1224;-70
2022/03/30 00:39:28;;;;;;;387.45;166.48;;;;;;;12.71;56.47;99092.16;341085;29;1534;-70
2022/03/30 00:39:38;;;;;;;385.92;163.93;;;;;;;12.72;56.54;99087.75;341179;28;1324;-70
2022/03/30 00:39:49;;;;;;;382.63;164.10;;;;;;;12.72;56.52;99093.00;342503;28;1320;-69
2022/03/30 00:39:59;;;;;;;378.50;164.88;;;;;;;12.73;56.59;99095.56;341023;28;1256;-69
2022/03/30 00:40:12;;;;;;;380.63;167.63;;;;;;;12.72;56.59;99088.59;341183;29;1293;-69
2022/03/30 00:40:22;;;;;;;380.15;165.43;;;;;;;12.72;56.61;99087.75;342606;28;843;-70
2022/03/30 00:40:33;;;;;;;379.83;163.13;;;;;;;12.73;56.86;99087.69;342484;28;1492;-69
2022/03/30 00:40:43;;;;;;;379.43;162.97;;;;;;;12.72;56.85;99090.38;342590;28;896;-69
2022/03/30 00:40:53;;;;;;;380.87;164.27;;;;;;;12.73;56.86;99089.44;343724;28;2103;-69
2022/03/30 00:41:04;;;;;;;381.85;168.10;;;;;;;12.73;56.86;99094.72;345031;28;2015;-69
2022/03/30 00:41:14;;;;;;;379.90;169.17;;;;;;;12.72;57.03;99090.38;342575;28;1207;-69
2022/03/30 00:41:27;;;;;;;379.55;165.90;;;;;;;12.72;56.93;99093.84;342455;28;1691;-69
2022/03/30 00:41:38;;;;;;;375.65;161.93;;;;;;;12.72;56.63;99085.97;342565;28;1454;-69
2022/03/30 00:41:49;;;;;;;377.08;160.25;;;;;;;12.71;56.76;99089.53;342661;28;944;-69
2022/03/30 00:41:59;;;;;;;374.53;158.53;;;;;;;12.70;56.81;99090.47;341630;28;1118;-69
2022/03/30 00:42:14;;;;;;;375.45;160.07;;;;;;;12.69;56.98;99083.53;341236;29;982;-69
2022/03/30 00:42:25;;;;;;;376.70;163.00;;;;;;;12.70;57.07;99085.22;343902;28;2166;-70
2022/03/30 00:42:35;;;;;;;379.67;164.43;;;;;;;12.68;57.13;99092.34;343916;28;857;-70
2022/03/30 00:42:45;;;;;;;379.67;164.47;;;;;;;12.68;57.16;99087.09;341584;28;1968;-70
2022/03/30 00:42:56;;;;;;;382.83;169.17;;;;;;;12.68;57.52;99092.34;342557;28;856;-70
2022/03/30 00:43:06;;;;;;;380.15;168.27;;;;;;;12.68;57.38;99087.09;343707;28;2033;-70
2022/03/30 00:43:17;;;;;;;380.37;164.77;;;;;;;12.65;57.78;99084.66;342410;28;1280;-70
2022/03/30 00:43:27;;;;;;;377.88;165.15;;;;;;;12.64;57.71;99090.81;343793;28;947;-70
2022/03/30 00:43:37;;;;;;;377.80;162.33;;;;;;;12.60;57.79;99084.06;342588;28;950;-70
2022/03/30 00:43:48;;;;;;;375.60;162.38;;;;;;;12.59;57.77;99087.63;342570;28;881;-70
2022/03/30 00:43:58;;;;;;;376.60;161.20;;;;;;;12.56;57.86;99078.13;343846;28;971;-70
2022/03/30 00:44:10;;;;;;;377.10;164.07;;;;;;;12.56;57.89;99091.25;344870;28;1511;-70
2022/03/30 00:44:20;;;;;;;380.27;165.35;;;;;;;12.57;57.77;99084.25;344094;28;1771;-70
2022/03/30 00:44:30;;;;;;;380.48;167.43;;;;;;;12.56;57.90;99087.81;343753;28;1865;-70
2022/03/30 00:44:41;;;;;;;381.47;168.17;;;;;;;12.56;57.90;99087.81;341150;29;881;-70
2022/03/30 00:44:52;;;;;;;380.50;167.75;;;;;;;12.54;58.37;99089.69;339421;29;2401;-70
2022/03/30 00:45:16;;;;;;;378.93;165.97;;;;;;;12.56;57.90;99093.06;342545;28;982;-70
2022/03/30 00:45:26;;;;;;;379.42;162.35;;;;;;;12.53;57.49;99088.00;341141;29;1055;-70
2022/03/30 00:45:37;;;;;;;380.77;161.57;;;;;;;12.54;57.68;99079.19;341128;29;1173;-70
2022/03/30 00:45:47;;;;;;;383.08;162.80;;;;;;;12.56;57.36;99088.63;345179;28;1983;-70
2022/03/30 00:45:58;;;;;;;382.37;163.20;;;;;;;12.56;57.38;99086.00;345016;28;1281;-70
2022/03/30 00:46:12;;;;;;;381.33;163.13;;;;;;;12.57;57.17;99089.47;343740;28;1149;-70
2022/03/30 00:46:22;;;;;;;379.65;163.55;;;;;;;12.55;56.53;99089.59;343935;28;1331;-70
2022/03/30 00:46:32;;;;;;;381.77;169.37;;;;;;;12.56;56.70;99087.81;342490;28;1362;-70
2022/03/30 00:46:43;;;;;;;385.40;176.32;;;;;;;12.54;56.78;99084.44;342622;28;1017;-70
2022/03/30 00:46:53;;;;;;;384.10;172.10;;;;;;;12.53;56.73;99085.38;342567;28;1053;-70
2022/03/30 00:47:12;;;;;;;380.10;161.35;;;;;;;12.53;56.48;99086.22;342599;28;873;-70
2022/03/30 00:47:24;;;;;;;376.02;155.80;;;;;;;12.51;56.15;99082.00;342535;28;1374;-70
2022/03/30 00:47:36;;;;;;;377.38;157.95;;;;;;;12.49;56.11;99079.47;341090;29;1155;-70
2022/03/30 00:47:46;;;;;;;382.65;164.55;;;;;;;12.51;55.67;99084.63;341190;28;1321;-70
2022/03/30 00:47:57;;;;;;;381.73;170.68;;;;;;;12.51;55.51;99077.59;343670;28;1212;-70
2022/03/30 00:48:07;;;;;;;381.88;172.98;;;;;;;12.54;55.51;99080.03;341163;28;1365;-70
2022/03/30 00:48:18;;;;;;;380.77;168.37;;;;;;;12.53;55.03;99083.59;339894;28;1361;-70
2022/03/30 00:48:28;;;;;;;384.67;172.13;;;;;;;12.54;55.06;99084.44;341409;28;877;-70
2022/03/30 00:48:39;;;;;;;389.35;174.35;;;;;;;12.54;54.93;99092.31;342468;28;1105;-70
2022/03/30 00:48:50;;;;;;;387.63;173.18;;;;;;;12.53;55.13;99085.38;342628;28;964;-70
2022/03/30 00:49:02;;;;;;;386.55;172.80;;;;;;;12.51;54.99;99084.63;343887;28;1104;-70
2022/03/30 00:49:12;;;;;;;385.05;170.05;;;;;;;12.51;54.79;99085.47;345189;28;1376;-70
2022/03/30 00:49:22;;;;;;;383.27;166.17;;;;;;;12.52;54.60;99081.06;341513;28;1992;-70
2022/03/30 00:49:33;;;;;;;382.65;162.40;;;;;;;12.51;54.79;99079.38;341125;28;1201;-70
2022/03/30 00:49:43;;;;;;;382.10;163.57;;;;;;;12.51;54.48;99079.38;343866;28;1268;-70